Time;durP1;ratioP1;P1;durP2;ratioP2;P2;SDS_P1;SDS_P2;PMS_P1;PMS_P2;Temp;Humidity;BMP_temperature;BMP_pressure;BME280_temperature;BME280_humidity;BME280_pressure;Samples;Min_cycle;Max_cycle;Signal;HPM_P1;HPM_P2
2022/05/21 00:00:17;;;;;;;15.70;5.18;;;;;;;14.54;nan;100740.53;5078974;28;20537;-69
2022/05/21 00:02:43;;;;;;;13.13;4.78;;;;;;;14.51;nan;100739.13;5086696;28;20589;-71
2022/05/21 00:05:09;;;;;;;11.13;4.97;;;;;;;14.47;nan;100738.81;5082655;28;20037;-72
2022/05/21 00:07:35;;;;;;;14.35;4.57;;;;;;;14.41;nan;100728.38;5075346;28;20059;-68
2022/05/21 00:10:01;;;;;;;14.38;4.55;;;;;;;14.39;nan;100725.16;5079038;28;20051;-70
2022/05/21 00:12:27;;;;;;;6.70;4.07;;;;;;;14.36;nan;100734.38;5077760;28;20063;-70
2022/05/21 00:14:53;;;;;;;12.48;4.63;;;;;;;14.30;nan;100727.41;5080024;28;20039;-69
2022/05/21 00:17:19;;;;;;;17.38;4.30;;;;;;;14.28;nan;100732.16;5079305;28;20399;-71
2022/05/21 00:19:44;;;;;;;7.38;3.63;;;;;;;14.15;nan;100720.03;5077633;28;20039;-70
2022/05/21 00:22:10;;;;;;;7.05;3.70;;;;;;;14.19;nan;100737.03;5086965;28;20028;-70
2022/05/21 00:24:36;;;;;;;7.22;3.38;;;;;;;14.02;nan;100707.91;5077494;28;20032;-71
2022/05/21 00:27:01;;;;;;;6.53;3.50;;;;;;;14.01;nan;100713.44;5100529;28;20040;-69
2022/05/21 00:29:28;;;;;;;9.48;3.47;;;;;;;13.75;nan;100677.81;5085683;28;20072;-64
2022/05/21 00:31:54;;;;;;;7.63;3.30;;;;;;;13.98;nan;100717.38;5083005;28;20050;-65
2022/05/21 00:34:20;;;;;;;6.63;3.20;;;;;;;13.87;nan;100705.00;5082379;28;20446;-65
2022/05/21 00:36:45;;;;;;;7.20;3.70;;;;;;;13.83;nan;100709.16;5076857;28;20039;-65
2022/05/21 00:39:10;;;;;;;6.28;3.03;;;;;;;13.86;nan;100718.47;5083389;28;20042;-65
2022/05/21 00:41:38;;;;;;;11.68;3.10;;;;;;;13.78;nan;100696.63;5087506;28;20024;-66
2022/05/21 00:44:05;;;;;;;7.28;3.33;;;;;;;13.80;nan;100699.06;5078139;28;20036;-66
2022/05/21 00:46:33;;;;;;;8.82;3.35;;;;;;;13.81;nan;100711.25;5072421;28;20106;-64
2022/05/21 00:49:26;;;;;;;7.53;3.42;;;;;;;13.76;nan;100711.94;5087042;28;20035;-66
2022/05/21 00:52:17;;;;;;;11.02;3.85;;;;;;;13.74;nan;100707.94;5082163;28;20505;-64
2022/05/21 00:54:50;;;;;;;6.45;3.33;;;;;;;13.66;nan;100705.69;5098788;28;20036;-65
2022/05/21 00:57:34;;;;;;;7.07;2.95;;;;;;;13.66;nan;100703.03;5085095;28;20028;-66
2022/05/21 01:00:09;;;;;;;7.25;3.42;;;;;;;13.59;nan;100705.84;5092035;28;20053;-65
2022/05/21 01:02:40;;;;;;;6.20;3.42;;;;;;;13.48;nan;100698.75;5083199;28;20046;-66
2022/05/21 01:05:10;;;;;;;6.43;3.00;;;;;;;13.44;nan;100701.06;5068363;28;20067;-65
2022/05/21 01:07:37;;;;;;;6.45;2.90;;;;;;;13.36;nan;100683.75;5086319;28;20036;-66
2022/05/21 01:10:05;;;;;;;7.25;3.22;;;;;;;13.41;nan;100696.25;5084185;28;20056;-66
2022/05/21 01:12:34;;;;;;;4.80;2.50;;;;;;;13.36;nan;100701.44;5077932;28;20387;-66
2022/05/21 01:15:03;;;;;;;6.57;2.83;;;;;;;13.31;nan;100704.81;5076247;28;20032;-65
2022/05/21 01:17:29;;;;;;;4.30;2.60;;;;;;;13.17;nan;100687.56;5085861;28;20089;-64
2022/05/21 01:19:58;;;;;;;4.70;2.67;;;;;;;13.21;nan;100701.91;5082439;28;20185;-64
2022/05/21 01:22:48;;;;;;;3.88;2.72;;;;;;;13.16;nan;100688.59;5098968;28;20036;-65
2022/05/21 01:25:17;;;;;;;8.43;3.10;;;;;;;13.13;nan;100695.16;5081282;28;20383;-64
2022/05/21 01:27:44;;;;;;;6.40;3.20;;;;;;;13.00;nan;100679.56;5082352;28;20087;-65
2022/05/21 01:30:15;;;;;;;6.40;2.80;;;;;;;13.05;nan;100689.41;5089223;28;20036;-65
2022/05/21 01:32:44;;;;;;;6.65;3.28;;;;;;;13.03;nan;100689.69;5089456;28;20036;-65
2022/05/21 01:35:10;;;;;;;8.35;3.15;;;;;;;12.93;nan;100670.97;5088899;28;20490;-65
2022/05/21 01:37:36;;;;;;;8.25;3.13;;;;;;;12.95;nan;100671.50;5089175;28;20044;-66
2022/05/21 01:40:01;;;;;;;8.23;2.90;;;;;;;12.98;nan;100671.88;5089494;28;20027;-65
2022/05/21 01:42:27;;;;;;;5.25;3.03;;;;;;;12.96;nan;100663.38;5088860;28;20535;-66
2022/05/21 01:44:52;;;;;;;9.68;2.85;;;;;;;12.93;nan;100666.47;5096808;28;20124;-66
2022/05/21 01:47:19;;;;;;;5.38;2.58;;;;;;;12.97;nan;100670.25;5098564;28;20116;-65
2022/05/21 01:49:45;;;;;;;4.40;2.63;;;;;;;12.94;nan;100656.72;5094930;28;20032;-65
2022/05/21 01:52:12;;;;;;;6.10;2.80;;;;;;;12.95;nan;100650.38;5084020;28;20052;-65
2022/05/21 01:54:38;;;;;;;8.85;2.83;;;;;;;12.93;nan;100647.97;5079006;28;20044;-66
2022/05/21 01:57:05;;;;;;;6.15;2.92;;;;;;;12.89;nan;100651.31;5081928;28;20028;-66
2022/05/21 01:59:31;;;;;;;6.45;2.72;;;;;;;12.86;nan;100646.50;5081542;28;20055;-66
2022/05/21 02:01:57;;;;;;;4.70;2.78;;;;;;;12.78;nan;100655.59;5080353;28;20486;-65
2022/05/21 02:04:23;;;;;;;5.85;2.60;;;;;;;12.75;nan;100651.56;5081092;28;20077;-65
2022/05/21 02:06:48;;;;;;;4.80;2.42;;;;;;;12.77;nan;100656.63;5089641;28;20086;-70
2022/05/21 02:09:14;;;;;;;9.10;2.78;;;;;;;12.72;nan;100654.69;5083994;28;20178;-70
2022/05/21 02:11:40;;;;;;;5.72;2.30;;;;;;;12.61;nan;100639.66;5084459;28;20056;-70
2022/05/21 02:14:07;;;;;;;4.25;2.50;;;;;;;12.68;nan;100644.81;5092860;28;20056;-70
2022/05/21 02:16:36;;;;;;;6.90;2.85;;;;;;;12.64;nan;100636.56;5078012;28;20128;-70
2022/05/21 02:19:04;;;;;;;6.07;2.97;;;;;;;12.62;nan;100643.09;5078521;28;20117;-69
2022/05/21 02:21:30;;;;;;;10.50;2.90;;;;;;;12.58;nan;100642.75;5085350;28;20039;-70
2022/05/21 02:23:56;;;;;;;7.00;3.05;;;;;;;12.52;nan;100633.09;5080365;28;20056;-70
2022/05/21 02:26:22;;;;;;;6.00;2.90;;;;;;;12.45;nan;100633.25;5090748;28;20074;-70
2022/05/21 02:28:48;;;;;;;4.55;2.88;;;;;;;12.47;nan;100633.78;5093426;28;20043;-70
2022/05/21 02:31:14;;;;;;;7.07;3.08;;;;;;;12.42;nan;100628.41;5080242;28;20695;-70
2022/05/21 02:33:43;;;;;;;5.68;3.15;;;;;;;12.50;nan;100638.63;5079998;28;20036;-71
2022/05/21 02:36:09;;;;;;;3.55;2.45;;;;;;;12.49;nan;100642.31;5080740;28;20508;-71
2022/05/21 02:41:20;;;;;;;7.60;2.65;;;;;;;12.39;nan;100631.53;5084119;28;20032;-71
2022/05/21 02:43:47;;;;;;;4.45;2.58;;;;;;;12.50;nan;100641.28;5085860;28;20486;-70
2022/05/21 02:46:14;;;;;;;8.48;2.30;;;;;;;12.48;nan;100637.28;5076858;28;20036;-72
2022/05/21 02:48:40;;;;;;;6.03;3.22;;;;;;;12.47;nan;100647.00;5081849;28;20428;-70
2022/05/21 02:51:06;;;;;;;10.05;2.50;;;;;;;12.48;nan;100647.84;5084656;28;20475;-70
2022/05/21 02:53:31;;;;;;;9.40;2.58;;;;;;;12.45;nan;100641.19;5074433;28;20043;-71
2022/05/21 02:56:06;;;;;;;5.28;2.88;;;;;;;12.39;nan;100646.56;5089957;28;20087;-71
2022/05/21 02:58:32;;;;;;;8.43;2.92;;;;;;;12.39;nan;100652.66;5079021;28;20033;-71
2022/05/21 03:00:58;;;;;;;6.15;2.63;;;;;;;12.35;nan;100656.78;5087116;28;20044;-69
2022/05/21 03:03:23;;;;;;;7.15;2.80;;;;;;;12.33;nan;100664.94;5078596;28;20447;-71
2022/05/21 03:05:49;;;;;;;5.97;2.53;;;;;;;12.24;nan;100670.81;5087973;28;20409;-71
2022/05/21 03:10:59;;;;;;;4.45;2.65;;;;;;;12.24;nan;100681.38;5085968;28;20462;-69
2022/05/21 03:13:25;;;;;;;5.28;2.50;;;;;;;12.21;nan;100682.63;5084889;28;20086;-71
2022/05/21 03:15:50;;;;;;;5.75;2.85;;;;;;;12.10;nan;100670.22;5077654;28;20043;-70
2022/05/21 03:18:16;;;;;;;10.82;3.50;;;;;;;12.17;nan;100680.66;5084215;28;20037;-71
2022/05/21 03:20:42;;;;;;;10.55;3.03;;;;;;;12.08;nan;100667.78;5082178;28;20115;-70
2022/05/21 03:23:09;;;;;;;5.40;2.78;;;;;;;12.10;nan;100678.13;5087196;28;20031;-70
2022/05/21 03:25:36;;;;;;;6.15;2.50;;;;;;;12.08;nan;100670.44;5088101;28;20039;-70
2022/05/21 03:28:02;;;;;;;10.80;3.03;;;;;;;12.08;nan;100667.00;5077619;28;20040;-71
2022/05/21 03:30:29;;;;;;;7.55;2.85;;;;;;;12.07;nan;100668.84;5087085;28;20091;-71
2022/05/21 03:32:56;;;;;;;8.90;3.15;;;;;;;12.06;nan;100666.41;5079204;28;20555;-71
2022/05/21 03:35:22;;;;;;;5.63;2.53;;;;;;;11.99;nan;100645.41;5087926;28;20031;-72
2022/05/21 03:37:49;;;;;;;4.43;2.63;;;;;;;12.07;nan;100654.84;5081164;28;20048;-72
2022/05/21 03:40:19;;;;;;;7.57;2.78;;;;;;;12.08;nan;100657.22;5081788;28;20052;-71
2022/05/21 03:42:45;;;;;;;8.85;3.03;;;;;;;12.10;nan;100665.72;5087345;28;20057;-71
2022/05/21 03:45:12;;;;;;;7.80;2.70;;;;;;;12.12;nan;100662.88;5078457;28;20036;-71
2022/05/21 03:47:41;;;;;;;12.82;2.72;;;;;;;12.09;nan;100661.50;5087631;28;20130;-66
2022/05/21 03:50:07;;;;;;;21.05;3.22;;;;;;;12.21;nan;100668.59;5080357;28;20596;-66
2022/05/21 03:52:33;;;;;;;8.35;2.90;;;;;;;12.24;nan;100668.16;5092593;28;20371;-66
2022/05/21 03:54:58;;;;;;;9.30;3.08;;;;;;;12.27;nan;100660.56;5074454;28;20040;-71
2022/05/21 03:57:23;;;;;;;7.13;2.80;;;;;;;12.31;nan;100667.00;5077789;28;20033;-71
2022/05/21 03:59:49;;;;;;;7.65;2.83;;;;;;;12.37;nan;100670.56;5087747;28;20774;-71
2022/05/21 04:02:14;;;;;;;6.35;2.70;;;;;;;12.38;nan;100664.25;5085209;28;20119;-71
2022/05/21 04:04:39;;;;;;;5.88;2.70;;;;;;;12.37;nan;100653.91;5082710;28;20035;-70
2022/05/21 04:07:06;;;;;;;9.55;2.70;;;;;;;12.47;nan;100654.94;5090031;28;20106;-70
2022/05/21 04:09:31;;;;;;;7.38;2.50;;;;;;;12.52;nan;100651.59;5090486;28;20825;-71
2022/05/21 04:11:57;;;;;;;15.60;3.65;;;;;;;12.56;nan;100660.69;5081578;28;20040;-72
2022/05/21 04:14:27;;;;;;;9.27;2.92;;;;;;;12.55;nan;100654.59;5084285;28;20051;-70
2022/05/21 04:17:00;;;;;;;6.38;2.60;;;;;;;12.65;nan;100656.66;5086311;28;20032;-71
2022/05/21 04:19:27;;;;;;;6.05;2.53;;;;;;;12.66;nan;100666.16;5098550;28;20032;-70
2022/05/21 04:21:53;;;;;;;4.72;2.33;;;;;;;12.71;nan;100673.41;5087009;28;20032;-70
2022/05/21 04:24:19;;;;;;;5.90;2.38;;;;;;;12.77;nan;100670.63;5078182;28;20059;-71
2022/05/21 04:26:46;;;;;;;7.78;2.47;;;;;;;12.84;nan;100670.53;5090853;28;20158;-71
2022/05/21 04:29:12;;;;;;;5.35;2.42;;;;;;;12.88;nan;100668.19;5099379;28;20036;-72
2022/05/21 04:31:38;;;;;;;9.63;2.75;;;;;;;12.96;nan;100673.13;5086500;28;20458;-71
2022/05/21 04:34:05;;;;;;;5.30;2.72;;;;;;;13.04;nan;100669.31;5089137;28;20063;-71
2022/05/21 04:36:31;;;;;;;8.38;2.60;;;;;;;13.08;nan;100657.25;5080461;28;20732;-71
2022/05/21 04:38:57;;;;;;;7.00;2.53;;;;;;;13.13;nan;100667.91;5076651;28;20040;-71
2022/05/21 04:41:25;;;;;;;7.50;2.70;;;;;;;13.20;nan;100663.28;5081931;28;20035;-70
2022/05/21 04:43:51;;;;;;;13.25;3.30;;;;;;;13.29;nan;100669.03;5087503;28;20044;-71
2022/05/21 04:46:17;;;;;;;11.32;2.53;;;;;;;13.24;nan;100653.88;5084011;28;20035;-71
2022/05/21 04:48:44;;;;;;;9.13;2.75;;;;;;;13.47;nan;100686.56;5081634;28;20032;-71
2022/05/21 04:51:09;;;;;;;7.05;2.95;;;;;;;13.55;nan;100688.81;5090110;28;20059;-71
2022/05/21 04:53:35;;;;;;;10.50;3.42;;;;;;;13.63;nan;100698.25;5089977;28;20032;-71
2022/05/21 04:56:01;;;;;;;4.10;2.22;;;;;;;13.74;nan;100716.72;5088895;28;20474;-71
2022/05/21 04:58:27;;;;;;;5.00;2.42;;;;;;;13.83;nan;100719.75;5092537;28;20024;-70
2022/05/21 05:00:52;;;;;;;6.38;2.30;;;;;;;13.93;nan;100727.06;5091625;28;20036;-70
2022/05/21 05:03:19;;;;;;;14.40;6.32;;;;;;;14.01;nan;100716.91;5093771;28;20478;-70
2022/05/21 05:05:46;;;;;;;10.48;6.25;;;;;;;14.04;nan;100699.72;5085606;28;20036;-70
2022/05/21 05:08:15;;;;;;;15.50;6.80;;;;;;;14.12;nan;100703.81;5078594;28;20062;-71
2022/05/21 05:10:41;;;;;;;8.35;4.55;;;;;;;14.17;nan;100709.97;5083074;28;20036;-70
2022/05/21 05:13:07;;;;;;;9.05;3.33;;;;;;;14.20;nan;100712.16;5076677;28;20049;-69
2022/05/21 05:15:33;;;;;;;7.28;3.03;;;;;;;14.27;nan;100712.00;5089162;28;20485;-71
2022/05/21 05:18:06;;;;;;;6.85;2.80;;;;;;;14.34;nan;100710.00;5087353;28;20362;-70
2022/05/21 05:20:32;;;;;;;7.80;2.20;;;;;;;14.32;nan;100701.50;5075007;28;20036;-70
2022/05/21 05:22:57;;;;;;;6.05;2.13;;;;;;;14.49;nan;100719.22;5079603;28;20047;-70
2022/05/21 05:25:24;;;;;;;8.60;2.40;;;;;;;14.55;nan;100719.06;5099703;28;20051;-70
2022/05/21 05:27:50;;;;;;;10.88;2.42;;;;;;;14.65;nan;100721.06;5090119;28;20048;-70
2022/05/21 05:30:17;;;;;;;10.63;2.30;;;;;;;14.80;nan;100734.53;5084518;28;20393;-71
2022/05/21 05:32:42;;;;;;;7.32;2.25;;;;;;;14.91;nan;100738.13;5082504;28;20028;-70
2022/05/21 05:35:09;;;;;;;7.18;2.38;;;;;;;14.96;nan;100743.47;5087104;28;20028;-70
2022/05/21 05:37:35;;;;;;;5.38;2.30;;;;;;;;;;5088792;28;20028;-71
2022/05/21 05:40:00;;;;;;;4.57;2.40;;;;;;;;;;5081251;28;20039;-70
2022/05/21 05:42:26;;;;;;;4.97;2.58;;;;;;;;;;5078140;28;20043;-72
2022/05/21 05:44:51;;;;;;;8.18;2.33;;;;;;;;;;5082741;28;20040;-72
2022/05/21 05:47:16;;;;;;;5.72;2.10;;;;;;;15.59;nan;100729.91;5092966;28;20126;-64
2022/05/21 05:49:42;;;;;;;7.82;2.13;;;;;;;;;;5081361;28;20062;-70
2022/05/21 05:52:08;;;;;;;6.83;1.87;;;;;;;;;;5078812;28;20040;-69
2022/05/21 05:54:34;;;;;;;11.02;2.35;;;;;;;;;;5076793;28;20322;-70
2022/05/21 05:56:59;;;;;;;6.18;2.20;;;;;;;;;;5086987;28;20040;-70
2022/05/21 06:04:52;;;;;;;7.80;1.75;;;;;;;;;;5078245;28;20040;-70
2022/05/21 06:07:17;;;;;;;4.63;2.15;;;;;;;;;;5078089;28;20123;-62
2022/05/21 06:09:43;;;;;;;7.17;2.00;;;;;;;;;;5082597;28;20044;-61
2022/05/21 06:12:09;;;;;;;5.78;2.00;;;;;;;;;;5080471;28;20686;-61
2022/05/21 06:14:35;;;;;;;4.10;2.22;;;;;;;;;;5088795;28;20101;-62
2022/05/21 06:17:00;;;;;;;6.00;2.08;;;;;;;;;;5091069;28;20533;-62
2022/05/21 06:19:26;;;;;;;4.90;1.70;;;;;;;;;;5090014;28;20577;-62
2022/05/21 06:21:56;;;;;;;4.40;1.98;;;;;;;;;;5088754;28;20024;-62
2022/05/21 06:24:21;;;;;;;6.40;2.42;;;;;;;;;;5090353;28;20036;-62
2022/05/21 06:26:46;;;;;;;6.00;2.40;;;;;;;;;;5088003;28;20056;-62
2022/05/21 06:29:12;;;;;;;4.43;2.30;;;;;;;;;;5082130;28;20718;-62
2022/05/21 06:31:38;;;;;;;4.73;2.07;;;;;;;;;;5087961;28;20081;-63
2022/05/21 06:34:03;;;;;;;3.70;2.08;;;;;;;;;;5082288;28;20056;-62
2022/05/21 06:36:28;;;;;;;7.50;2.20;;;;;;;;;;5079878;28;20394;-61
2022/05/21 06:38:55;;;;;;;6.43;2.17;;;;;;;;;;5097616;28;20276;-62
2022/05/21 06:41:20;;;;;;;6.15;2.00;;;;;;;;;;5083330;28;20281;-70
2022/05/21 06:43:46;;;;;;;5.70;2.10;;;;;;;;;;5081610;28;20063;-70
2022/05/21 06:46:11;;;;;;;5.57;2.10;;;;;;;;;;5078563;28;20314;-71
2022/05/21 06:48:36;;;;;;;3.57;1.90;;;;;;;;;;5080804;28;20615;-71
2022/05/21 06:51:05;;;;;;;5.23;2.20;;;;;;;;;;5087167;28;20289;-71
2022/05/21 06:53:31;;;;;;;5.55;2.28;;;;;;;;;;5082666;28;20060;-72
2022/05/21 06:55:57;;;;;;;6.53;2.10;;;;;;;;;;5085989;28;20071;-71
2022/05/21 06:58:22;;;;;;;3.83;2.20;;;;;;;18.42;nan;100656.31;5077786;28;20078;-72
2022/05/21 07:00:48;;;;;;;6.05;2.28;;;;;;;;;;5083863;28;20024;-72
2022/05/21 07:03:13;;;;;;;3.17;2.07;;;;;;;;;;5086577;28;20040;-71
2022/05/21 07:08:25;;;;;;;4.78;2.53;;;;;;;18.71;nan;100627.16;5086013;28;20111;-71
2022/05/21 07:10:52;;;;;;;7.65;2.42;;;;;;;;;;5082478;28;20476;-71
2022/05/21 07:13:19;;;;;;;5.70;2.03;;;;;;;18.95;nan;100552.59;5082592;28;20047;-71
2022/05/21 07:15:47;;;;;;;5.57;2.63;;;;;;;;;;5087016;28;20036;-71
2022/05/21 07:18:18;;;;;;;6.10;2.42;;;;;;;19.21;nan;100549.78;5082532;28;20036;-71
2022/05/21 07:20:44;;;;;;;5.07;2.40;;;;;;;;;;5079068;28;20038;-71
2022/05/21 07:23:09;;;;;;;6.88;2.58;;;;;;;19.33;nan;100558.22;5083742;28;20061;-71
2022/05/21 07:25:35;;;;;;;4.25;2.22;;;;;;;19.45;nan;100555.19;5091305;28;20089;-70
2022/05/21 07:28:01;;;;;;;5.85;2.00;;;;;;;19.52;nan;100551.09;5091168;28;20048;-70
2022/05/21 07:30:27;;;;;;;4.43;2.28;;;;;;;19.60;nan;100547.03;5078738;28;20686;-71
2022/05/21 07:32:55;;;;;;;5.53;2.35;;;;;;;19.66;nan;100545.91;5078852;28;20040;-71
2022/05/21 07:35:21;;;;;;;4.35;2.00;;;;;;;19.77;nan;100547.41;5079849;28;20381;-70
2022/05/21 07:37:48;;;;;;;4.57;2.35;;;;;;;19.94;nan;100538.97;5085405;28;20048;-64
2022/05/21 07:40:15;;;;;;;6.07;2.17;;;;;;;20.00;nan;100555.75;5083907;28;20028;-70
2022/05/21 07:42:40;;;;;;;5.60;2.50;;;;;;;20.08;nan;100533.72;5076454;28;20040;-63
2022/05/21 07:45:08;;;;;;;3.45;2.35;;;;;;;20.09;nan;100492.56;5076217;28;20093;-63
2022/05/21 07:47:34;;;;;;;5.22;2.13;;;;;;;20.35;nan;100551.88;5091575;28;20038;-70
2022/05/21 07:49:59;;;;;;;9.50;2.25;;;;;;;20.49;nan;100525.19;5082101;28;20880;-70
2022/05/21 07:52:27;;;;;;;16.40;3.15;;;;;;;20.56;nan;100541.72;5082930;28;20036;-70
2022/05/21 07:54:53;;;;;;;4.63;2.17;;;;;;;20.67;nan;100541.59;5074427;28;20048;-66
2022/05/21 07:57:18;;;;;;;4.10;2.30;;;;;;;;;;5087040;28;20032;-67
2022/05/21 07:59:44;;;;;;;8.43;2.45;;;;;;;20.87;nan;100551.22;5079327;28;20089;-66
2022/05/21 08:02:15;;;;;;;5.93;2.42;;;;;;;20.95;nan;100551.38;5075575;28;20639;-67
2022/05/21 08:04:44;;;;;;;3.28;1.98;;;;;;;21.02;nan;100553.66;5083996;28;20043;-70
2022/05/21 08:07:10;;;;;;;5.30;2.25;;;;;;;21.15;nan;100541.44;5088641;28;20035;-71
2022/05/21 08:09:35;;;;;;;6.72;2.15;;;;;;;21.24;nan;100620.81;5083480;28;20047;-71
2022/05/21 08:12:02;;;;;;;3.75;2.22;;;;;;;21.30;nan;100543.84;5073345;28;20032;-70
2022/05/21 08:14:28;;;;;;;7.72;2.63;;;;;;;21.33;nan;100521.81;5077791;28;20498;-71
2022/05/21 08:16:54;;;;;;;6.35;2.58;;;;;;;21.47;nan;100540.66;5091554;28;20036;-70
2022/05/21 08:19:19;;;;;;;3.67;2.42;;;;;;;21.49;nan;100494.81;5108230;28;20040;-70
2022/05/21 08:21:45;;;;;;;5.47;2.35;;;;;;;21.62;nan;100539.56;5104974;28;20426;-69
2022/05/21 08:26:57;;;;;;;4.55;2.20;;;;;;;21.79;nan;100555.91;5098045;28;20051;-68
2022/05/21 08:29:29;;;;;;;7.30;2.70;;;;;;;21.95;nan;100558.28;5096188;28;20554;-70
2022/05/21 08:31:54;;;;;;;6.95;2.42;;;;;;;22.13;nan;100562.78;5101055;28;20453;-69
2022/05/21 08:34:20;;;;;;;5.90;2.53;;;;;;;22.21;nan;100551.38;5089876;28;20035;-70
2022/05/21 08:36:47;;;;;;;5.65;2.25;;;;;;;22.21;nan;100548.69;5095571;28;20127;-70
2022/05/21 08:39:13;;;;;;;6.10;2.60;;;;;;;22.31;nan;100569.13;5090474;28;20042;-70
2022/05/21 08:41:51;;;;;;;4.65;2.50;;;;;;;22.41;nan;100609.19;5079561;28;20032;-70
2022/05/21 08:44:36;;;;;;;4.60;2.40;;;;;;;22.54;nan;100626.38;5086385;28;20111;-70
2022/05/21 08:47:04;;;;;;;4.07;2.60;;;;;;;22.66;nan;100629.34;5084752;28;20074;-70
2022/05/21 08:49:36;;;;;;;5.60;2.43;;;;;;;22.72;nan;100641.56;5077508;28;20032;-69
2022/05/21 08:52:04;;;;;;;5.63;2.88;;;;;;;22.87;nan;100615.50;5085224;28;20039;-69
2022/05/21 08:54:37;;;;;;;6.40;2.80;;;;;;;22.94;nan;100583.66;5085245;28;20031;-70
2022/05/21 08:57:03;;;;;;;7.22;3.00;;;;;;;23.05;nan;100630.69;5081289;28;20117;-70
2022/05/21 08:59:38;;;;;;;8.15;3.00;;;;;;;23.16;nan;100584.81;5087125;28;20032;-71
2022/05/21 09:02:08;;;;;;;4.60;3.25;;;;;;;23.29;nan;100573.19;5084331;28;20082;-71
2022/05/21 09:04:35;;;;;;;5.05;3.00;;;;;;;23.36;nan;100585.09;5085930;28;20043;-69
2022/05/21 09:07:08;;;;;;;10.65;3.50;;;;;;;23.52;nan;100582.81;5089391;28;20086;-70
2022/05/21 09:10:08;;;;;;;5.40;3.28;;;;;;;23.75;nan;100583.63;5083169;28;20478;-69
2022/05/21 09:12:44;;;;;;;8.45;3.30;;;;;;;23.94;nan;100574.50;5069582;28;20537;-70
2022/05/21 09:16:54;;;;;;;9.93;3.25;;;;;;;24.03;nan;100588.00;5077506;28;20068;-69
2022/05/21 09:18:05;;;;;;;5.45;3.28;;;;;;;24.11;nan;100554.94;5080879;28;20044;-69
2022/05/21 09:20:36;;;;;;;6.63;3.40;;;;;;;24.27;nan;100552.63;5071678;28;20492;-66
2022/05/21 09:23:02;;;;;;;5.80;3.15;;;;;;;24.44;nan;100549.97;5075595;28;20044;-65
2022/05/21 09:25:28;;;;;;;7.88;2.92;;;;;;;24.49;nan;100563.28;5071116;28;20029;-68
2022/05/21 09:28:22;;;;;;;6.47;2.72;;;;;;;24.62;nan;100556.19;5084558;28;20123;-69
2022/05/21 09:30:57;;;;;;;7.13;2.97;;;;;;;24.73;nan;100549.38;5074266;28;20054;-71
2022/05/21 09:33:45;;;;;;;7.72;3.33;;;;;;;24.87;nan;100526.88;5088369;28;20549;-71
2022/05/21 09:36:18;;;;;;;7.90;3.75;;;;;;;24.98;nan;100536.25;5071437;28;20043;-70
2022/05/21 09:38:53;;;;;;;6.20;3.13;;;;;;;25.04;nan;100530.38;5075051;28;20040;-70
2022/05/21 09:41:20;;;;;;;8.98;3.78;;;;;;;25.11;nan;100531.78;5075955;28;20424;-70
2022/05/21 09:46:42;;;;;;;4.63;3.33;;;;;;;25.31;nan;100504.19;5075001;28;20501;-70
2022/05/21 09:49:26;;;;;;;8.48;3.72;;;;;;;25.37;nan;100515.59;5077887;28;20039;-70
2022/05/21 09:52:01;;;;;;;4.18;2.90;;;;;;;25.36;nan;100506.72;5076995;28;20115;-70
2022/05/21 09:54:32;;;;;;;4.28;3.10;;;;;;;25.44;nan;100505.88;5092585;28;20039;-70
2022/05/21 09:56:59;;;;;;;7.10;3.45;;;;;;;25.47;nan;100512.53;5078342;28;20032;-70
2022/05/21 09:59:27;;;;;;;6.22;3.28;;;;;;;25.52;nan;100498.88;5085214;28;20058;-70
2022/05/21 10:01:57;;;;;;;5.03;3.03;;;;;;;25.52;nan;100503.47;5083849;28;20036;-70
2022/05/21 10:04:51;;;;;;;6.20;3.42;;;;;;;25.55;nan;100500.94;5094966;28;20091;-70
2022/05/21 10:13:09;;;;;;;12.13;4.00;;;;;;;25.61;nan;100507.72;5092686;28;20064;-68
2022/05/21 10:15:43;;;;;;;4.85;3.33;;;;;;;25.64;nan;100496.31;5099330;28;20031;-72
2022/05/21 10:18:11;;;;;;;8.02;4.22;;;;;;;25.68;nan;100508.00;5085634;28;20127;-71
2022/05/21 10:20:41;;;;;;;5.75;4.40;;;;;;;25.72;nan;100480.41;5096811;28;20039;-71
2022/05/21 10:23:44;;;;;;;5.57;3.67;;;;;;;25.76;nan;100494.81;5085304;28;20048;-71
2022/05/21 10:26:58;;;;;;;7.97;3.50;;;;;;;25.79;nan;100491.47;5090821;28;20068;-72
2022/05/21 10:29:39;;;;;;;6.80;3.40;;;;;;;25.82;nan;100471.94;5065890;28;20036;-70
2022/05/21 10:32:23;;;;;;;9.95;3.55;;;;;;;25.87;nan;100471.78;5083625;28;20035;-70
2022/05/21 10:35:28;;;;;;;7.68;3.38;;;;;;;25.91;nan;100491.59;5087503;28;20036;-71
2022/05/21 10:38:01;;;;;;;6.35;3.38;;;;;;;25.99;nan;100479.94;5083493;28;20036;-70
2022/05/21 10:40:35;;;;;;;5.90;3.75;;;;;;;26.08;nan;100483.41;5093533;28;20123;-70
2022/05/21 10:43:22;;;;;;;8.40;3.28;;;;;;;26.18;nan;100470.63;5087789;28;20127;-71
2022/05/21 10:46:07;;;;;;;8.98;3.17;;;;;;;26.25;nan;100468.19;5086282;28;20687;-71
2022/05/21 10:48:45;;;;;;;5.93;3.78;;;;;;;26.34;nan;100474.34;5084094;28;20549;-71
2022/05/21 10:51:40;;;;;;;10.20;3.63;;;;;;;26.43;nan;100483.13;5085661;28;20040;-71
2022/05/21 10:54:17;;;;;;;7.30;3.58;;;;;;;26.52;nan;100470.34;5091812;28;20036;-71
2022/05/21 10:57:04;;;;;;;8.77;3.33;;;;;;;26.60;nan;100489.53;5091650;28;20132;-72
2022/05/21 11:00:08;;;;;;;7.90;3.80;;;;;;;26.64;nan;100464.25;5090534;28;20389;-71
2022/05/21 11:03:00;;;;;;;7.82;4.00;;;;;;;26.68;nan;100457.06;5056958;28;20068;-72
2022/05/21 11:05:40;;;;;;;6.88;3.83;;;;;;;26.74;nan;100438.72;5054563;28;20140;-72
2022/05/21 11:08:05;;;;;;;8.65;3.55;;;;;;;26.82;nan;100418.97;5061214;28;20048;-72
2022/05/21 11:10:40;;;;;;;7.43;3.25;;;;;;;26.85;nan;100464.22;5058893;28;20402;-70
2022/05/21 11:13:16;;;;;;;5.38;3.17;;;;;;;26.95;nan;100401.63;5058309;28;20105;-71
2022/05/21 11:15:52;;;;;;;5.95;3.38;;;;;;;27.02;nan;100454.34;5051971;28;20087;-71
2022/05/21 11:18:32;;;;;;;5.40;3.72;;;;;;;27.12;nan;100403.34;5058892;28;20126;-70
2022/05/21 11:21:16;;;;;;;7.15;3.10;;;;;;;27.21;nan;100421.41;5062633;28;20426;-71
2022/05/21 11:24:19;;;;;;;7.95;2.75;;;;;;;27.30;nan;100439.13;5054687;28;20258;-70
2022/05/21 11:26:48;;;;;;;5.50;2.75;;;;;;;27.41;nan;100444.84;5050692;28;20055;-71
2022/05/21 11:29:19;;;;;;;4.03;2.58;;;;;;;27.46;nan;100433.81;5068962;28;20040;-70
2022/05/21 11:37:33;;;;;;;9.68;2.97;;;;;;;27.78;nan;100453.75;5092450;28;20485;-70
2022/05/21 11:40:01;;;;;;;10.43;3.75;;;;;;;27.82;nan;100434.13;5082023;28;20078;-71
2022/05/21 11:42:31;;;;;;;4.28;3.08;;;;;;;27.93;nan;100467.75;5080348;28;20028;-71
2022/05/21 11:45:09;;;;;;;7.07;2.80;;;;;;;28.03;nan;100458.38;5084459;28;20043;-70
2022/05/21 11:47:43;;;;;;;8.95;3.90;;;;;;;28.08;nan;100461.63;5092410;28;20115;-72
2022/05/21 11:50:15;;;;;;;6.13;2.85;;;;;;;28.17;nan;100424.38;5072951;28;20500;-71
2022/05/21 11:52:41;;;;;;;7.80;3.03;;;;;;;28.20;nan;100429.09;5082639;28;20059;-72
2022/05/21 11:55:18;;;;;;;6.40;2.92;;;;;;;28.24;nan;100431.91;5073355;28;20127;-70
2022/05/21 11:57:52;;;;;;;5.05;2.80;;;;;;;28.34;nan;100423.31;5083700;28;20041;-71
2022/05/21 12:00:18;;;;;;;5.10;2.80;;;;;;;28.43;nan;100425.88;5083725;28;20116;-71
2022/05/21 12:03:10;;;;;;;3.43;2.47;;;;;;;28.54;nan;100431.59;5087031;28;20123;-71
2022/05/21 12:05:37;;;;;;;6.63;2.75;;;;;;;28.62;nan;100428.75;5091336;28;21056;-72
2022/05/21 12:08:09;;;;;;;3.83;2.22;;;;;;;28.68;nan;100428.50;5096849;28;20040;-70
2022/05/21 12:11:02;;;;;;;4.63;1.80;;;;;;;28.69;nan;100422.72;5092092;28;20040;-71
2022/05/21 12:13:33;;;;;;;4.47;1.67;;;;;;;28.74;nan;100425.19;5092322;28;20039;-71
2022/05/21 12:16:22;;;;;;;8.43;2.20;;;;;;;28.83;nan;100414.19;5090581;28;20036;-71
2022/05/21 12:18:50;;;;;;;2.67;1.75;;;;;;;28.88;nan;100391.44;5085775;28;20067;-71
2022/05/21 12:21:37;;;;;;;4.15;1.83;;;;;;;28.99;nan;100433.94;5093300;28;20028;-70
2022/05/21 12:24:26;;;;;;;3.45;1.80;;;;;;;29.08;nan;100393.16;5089533;28;20078;-69
2022/05/21 12:27:21;;;;;;;4.60;1.80;;;;;;;29.26;nan;100394.38;5089389;28;20590;-71
2022/05/21 12:29:58;;;;;;;5.65;1.77;;;;;;;29.22;nan;100368.31;5094447;28;20040;-71
2022/05/21 12:32:24;;;;;;;9.70;2.53;;;;;;;29.21;nan;100404.69;5091906;28;20043;-71
2022/05/21 12:35:23;;;;;;;9.38;2.30;;;;;;;29.05;nan;100385.69;5090636;28;20401;-72
2022/05/21 12:37:51;;;;;;;6.13;2.17;;;;;;;29.11;nan;100416.84;5078834;28;20028;-71
2022/05/21 12:40:30;;;;;;;8.23;1.75;;;;;;;29.18;nan;100380.97;5089737;28;20123;-74
2022/05/21 12:43:03;;;;;;;5.65;2.13;;;;;;;29.26;nan;100399.78;5089467;28;20069;-70